createdAt,value
2019-03-23T00:01:36.216Z,11.54
2019-03-23T00:04:04.842Z,11.39
2019-03-23T00:06:33.479Z,11.41
2019-03-23T00:09:02.138Z,11.47
2019-03-23T00:11:30.779Z,11.57
2019-03-23T00:13:59.413Z,11.47
2019-03-23T00:16:28.094Z,11.48
2019-03-23T00:18:56.656Z,11.40
2019-03-23T00:21:25.207Z,11.35
2019-03-23T00:23:53.869Z,11.46
2019-03-23T00:26:22.484Z,11.29
2019-03-23T00:28:51.100Z,11.38
2019-03-23T00:31:19.759Z,11.41
2019-03-23T00:33:48.391Z,11.21
2019-03-23T00:36:17.016Z,11.19
2019-03-23T00:38:45.607Z,10.84
2019-03-23T00:41:14.234Z,10.70
2019-03-23T00:43:42.859Z,10.91
2019-03-23T00:46:11.522Z,10.98
2019-03-23T00:48:40.088Z,11.09
2019-03-23T00:51:08.715Z,10.87
2019-03-23T00:53:37.379Z,10.84
2019-03-23T00:56:05.994Z,10.76
2019-03-23T00:58:34.617Z,10.60
2019-03-23T01:01:03.276Z,10.66
2019-03-23T01:03:31.901Z,10.48
2019-03-23T01:06:00.534Z,10.62
2019-03-23T01:08:29.115Z,10.73
2019-03-23T01:10:57.669Z,10.76
2019-03-23T01:13:26.292Z,10.89
2019-03-23T01:15:54.949Z,10.78
2019-03-23T01:18:23.571Z,9.89
2019-03-23T01:20:52.265Z,10.23
2019-03-23T01:23:20.919Z,9.67
2019-03-23T01:25:49.537Z,9.85
2019-03-23T01:28:18.163Z,8.16
2019-03-23T01:30:46.839Z,9.02
2019-03-23T01:33:15.385Z,7.95
2019-03-23T01:38:43.938Z,9.75
2019-03-23T01:41:12.503Z,10.13
2019-03-23T01:43:41.126Z,10.13
2019-03-23T01:46:09.807Z,10.11
2019-03-23T01:48:38.423Z,9.98
2019-03-23T01:51:07.072Z,10.37
2019-03-23T01:53:35.656Z,10.41
2019-03-23T01:56:04.275Z,10.38
2019-03-23T01:58:32.889Z,10.43
2019-03-23T02:01:01.559Z,10.36
2019-03-23T02:03:30.180Z,10.44
2019-03-23T02:05:58.869Z,10.32
2019-03-23T02:08:27.537Z,10.05
2019-03-23T02:10:56.166Z,10.21
2019-03-23T02:13:24.634Z,10.30
2019-03-23T02:15:53.298Z,10.40
2019-03-23T02:18:21.916Z,10.40
2019-03-23T02:20:50.636Z,10.21
2019-03-23T02:23:19.239Z,10.14
2019-03-23T02:25:47.798Z,10.23
2019-03-23T02:28:16.356Z,10.38
2019-03-23T02:30:45.011Z,10.36
2019-03-23T02:33:13.566Z,10.47
2019-03-23T02:35:42.188Z,10.44
2019-03-23T02:38:10.849Z,10.16
2019-03-23T02:40:39.400Z,10.12
2019-03-23T02:43:08.035Z,10.19
2019-03-23T02:45:36.689Z,9.98
2019-03-23T02:48:05.311Z,9.97
2019-03-23T02:50:33.948Z,10.03
2019-03-23T02:53:02.550Z,10.14
2019-03-23T02:55:31.099Z,10.08
2019-03-23T02:57:59.730Z,9.87
2019-03-23T03:00:28.397Z,10.01
2019-03-23T03:02:57.776Z,9.93
2019-03-23T03:05:26.263Z,10.08
2019-03-23T03:07:54.934Z,10.19
2019-03-23T03:10:40.178Z,9.80
2019-03-23T03:13:09.024Z,10.06
2019-03-23T03:15:37.633Z,9.71
2019-03-23T03:18:07.409Z,9.90
2019-03-23T03:20:36.119Z,10.26
2019-03-23T03:23:04.830Z,9.67
2019-03-23T03:25:33.457Z,9.82
2019-03-23T03:28:02.046Z,10.05
2019-03-23T03:30:30.675Z,10.13
2019-03-23T03:32:59.293Z,9.73
2019-03-23T03:35:27.889Z,10.01
2019-03-23T03:37:57.371Z,10.01
2019-03-23T03:40:26.153Z,9.60
2019-03-23T03:42:54.905Z,9.67
2019-03-23T03:45:27.940Z,9.08
2019-03-23T03:47:56.766Z,9.27
2019-03-23T03:50:25.426Z,9.27
2019-03-23T03:52:54.041Z,9.59
2019-03-23T03:55:22.680Z,9.51
2019-03-23T03:57:51.334Z,9.72
2019-03-23T04:00:19.948Z,9.82
2019-03-23T04:02:48.565Z,9.81
2019-03-23T04:05:18.057Z,10.02
2019-03-23T04:07:47.003Z,9.86
2019-03-23T04:10:15.612Z,9.79
2019-03-23T04:12:44.246Z,9.79
2019-03-23T04:15:13.032Z,9.63
2019-03-23T04:17:41.579Z,9.62
2019-03-23T04:20:11.231Z,9.62
2019-03-23T04:22:39.884Z,9.61
2019-03-23T04:25:09.871Z,9.91
2019-03-23T04:27:38.456Z,9.58
2019-03-23T04:30:08.483Z,9.63
2019-03-23T04:32:37.101Z,9.74
2019-03-23T04:35:07.472Z,9.72
2019-03-23T04:37:36.029Z,9.63
2019-03-23T04:40:06.240Z,9.45
2019-03-23T04:42:34.887Z,9.45
2019-03-23T04:45:04.105Z,9.70
2019-03-23T04:47:32.710Z,9.62
2019-03-23T04:50:01.294Z,9.47
2019-03-23T04:52:29.840Z,9.58
2019-03-23T04:54:58.467Z,9.53
2019-03-23T04:57:27.119Z,9.70
2019-03-23T04:59:55.747Z,9.62
2019-03-23T05:02:24.368Z,9.62
2019-03-23T05:04:53.035Z,9.60
2019-03-23T05:07:22.508Z,9.29
2019-03-23T05:09:50.991Z,9.37
2019-03-23T05:12:19.661Z,9.37
2019-03-23T05:14:48.296Z,9.46
2019-03-23T05:17:16.859Z,9.26
2019-03-23T05:19:45.510Z,9.26
2019-03-23T05:22:14.131Z,8.70
2019-03-23T05:24:42.758Z,9.01
2019-03-23T05:27:11.336Z,9.16
2019-03-23T05:29:39.964Z,9.38
2019-03-23T05:32:08.585Z,9.66
2019-03-23T05:34:37.241Z,9.53
2019-03-23T05:37:05.862Z,9.69
2019-03-23T05:39:34.402Z,9.56
2019-03-23T05:42:03.060Z,9.88
2019-03-23T05:44:31.674Z,9.78
2019-03-23T05:47:00.311Z,9.98
2019-03-23T05:49:28.964Z,9.98
2019-03-23T05:51:57.534Z,10.16
2019-03-23T05:54:26.174Z,10.18
2019-03-23T05:56:54.841Z,10.21
2019-03-23T05:59:23.544Z,10.31
2019-03-23T06:01:52.258Z,9.67
2019-03-23T06:04:20.993Z,10.25
2019-03-23T06:06:49.553Z,10.11
2019-03-23T06:09:19.031Z,10.41
2019-03-23T06:11:47.702Z,10.52
2019-03-23T06:14:16.252Z,10.67
2019-03-23T06:16:44.877Z,10.53
2019-03-23T06:19:13.404Z,10.66
2019-03-23T06:21:42.802Z,9.93
2019-03-23T06:24:11.424Z,9.44
2019-03-23T06:26:40.040Z,10.30
2019-03-23T06:29:08.601Z,10.80
2019-03-23T06:31:37.298Z,10.46
2019-03-23T06:34:05.959Z,10.05
2019-03-23T06:36:34.667Z,10.44
2019-03-23T06:39:05.690Z,10.08
2019-03-23T06:41:34.611Z,10.04
2019-03-23T06:44:03.245Z,10.61
2019-03-23T06:46:31.870Z,10.54
2019-03-23T06:49:00.527Z,10.24
2019-03-23T06:51:29.149Z,10.31
2019-03-23T06:53:57.628Z,9.68
2019-03-23T06:56:26.305Z,9.84
2019-03-23T06:58:54.989Z,10.92
2019-03-23T07:01:23.618Z,10.66
2019-03-23T07:03:52.273Z,10.15
2019-03-23T07:06:20.822Z,9.72
2019-03-23T07:08:49.452Z,10.94
2019-03-23T07:11:18.121Z,10.94
2019-03-23T07:13:46.755Z,10.74
2019-03-23T07:16:15.450Z,10.96
2019-03-23T07:18:44.100Z,11.04
2019-03-23T07:21:12.728Z,11.54
2019-03-23T07:23:41.360Z,11.05
2019-03-23T07:26:09.947Z,11.91
2019-03-23T07:28:38.582Z,11.62
2019-03-23T07:31:07.258Z,11.31
2019-03-23T07:33:35.943Z,11.39
2019-03-23T07:36:04.696Z,11.31
2019-03-23T07:38:33.319Z,11.89
2019-03-23T07:41:02.031Z,12.00
2019-03-23T07:43:30.692Z,11.69
2019-03-23T07:45:59.324Z,11.70
2019-03-23T07:48:28.617Z,11.59
2019-03-23T07:50:57.240Z,11.77
2019-03-23T07:53:25.875Z,11.61
2019-03-23T07:55:54.463Z,11.09
2019-03-23T07:58:23.012Z,11.94
2019-03-23T08:00:51.579Z,12.23
2019-03-23T08:03:20.167Z,11.44
2019-03-23T08:05:48.739Z,11.82
2019-03-23T08:08:17.354Z,12.35
2019-03-23T08:10:46.148Z,11.68
2019-03-23T08:13:14.791Z,12.60
2019-03-23T08:15:43.413Z,11.78
2019-03-23T08:18:11.997Z,12.57
2019-03-23T08:20:40.637Z,13.03
2019-03-23T08:23:09.256Z,13.12
2019-03-23T08:25:37.917Z,12.38
2019-03-23T08:28:06.542Z,12.86
2019-03-23T08:30:35.170Z,12.89
2019-03-23T08:33:03.837Z,12.85
2019-03-23T08:35:32.469Z,12.34
2019-03-23T08:38:00.955Z,13.21
2019-03-23T08:40:29.809Z,13.87
2019-03-23T08:42:58.441Z,14.05
2019-03-23T08:45:27.068Z,13.74
2019-03-23T08:47:55.664Z,13.52
2019-03-23T08:50:24.249Z,14.12
2019-03-23T08:52:52.771Z,14.58
2019-03-23T08:55:22.033Z,14.07
2019-03-23T08:57:50.640Z,13.45
2019-03-23T09:00:19.262Z,13.76
2019-03-23T09:02:47.917Z,13.36
2019-03-23T09:05:16.540Z,13.29
2019-03-23T09:07:45.111Z,14.10
2019-03-23T09:10:13.766Z,14.00
2019-03-23T09:12:42.792Z,14.01
2019-03-23T09:15:11.715Z,14.29
2019-03-23T09:17:40.370Z,14.65
2019-03-23T09:20:10.896Z,14.64
2019-03-23T09:22:39.527Z,14.17
2019-03-23T09:25:09.257Z,14.24
2019-03-23T09:27:37.870Z,14.79
2019-03-23T09:30:09.354Z,15.07
2019-03-23T09:32:38.041Z,14.82
2019-03-23T09:35:06.867Z,14.59
2019-03-23T09:37:38.174Z,13.80
2019-03-23T09:40:11.155Z,14.20
2019-03-23T09:42:37.216Z,14.78
2019-03-23T09:45:08.347Z,15.03
2019-03-23T09:47:37.108Z,14.87
2019-03-23T09:50:08.525Z,15.37
2019-03-23T09:52:36.999Z,15.14
2019-03-23T09:55:07.261Z,14.83
2019-03-23T09:57:35.811Z,14.38
2019-03-23T10:00:07.124Z,15.17
2019-03-23T10:02:35.790Z,15.58
2019-03-23T10:05:06.211Z,15.81
2019-03-23T10:07:34.842Z,15.62
2019-03-23T10:10:03.519Z,15.76
2019-03-23T10:12:32.142Z,15.73
2019-03-23T10:15:00.685Z,15.33
2019-03-23T10:17:29.271Z,14.62
2019-03-23T10:19:57.891Z,15.45
2019-03-23T10:22:26.445Z,15.73
2019-03-23T10:24:55.040Z,16.18
2019-03-23T10:27:23.664Z,16.49
2019-03-23T10:29:52.281Z,16.49
2019-03-23T10:32:20.857Z,16.47
2019-03-23T10:34:49.404Z,16.23
2019-03-23T10:37:18.034Z,16.34
2019-03-23T10:39:46.691Z,16.57
2019-03-23T10:42:16.352Z,16.71
2019-03-23T10:44:45.026Z,16.52
2019-03-23T10:47:13.673Z,17.15
2019-03-23T10:49:42.306Z,17.04
2019-03-23T10:52:10.894Z,16.70
2019-03-23T10:54:39.459Z,16.23
2019-03-23T10:57:08.006Z,16.19
2019-03-23T10:59:36.626Z,16.23
2019-03-23T11:02:05.388Z,16.44
2019-03-23T11:04:34.091Z,16.42
2019-03-23T11:07:02.720Z,16.75
2019-03-23T11:09:31.381Z,15.93
2019-03-23T11:12:00.211Z,16.85
2019-03-23T11:14:28.880Z,16.91
2019-03-23T11:16:57.495Z,17.04
2019-03-23T11:19:26.979Z,17.11
2019-03-23T11:21:55.596Z,16.40
2019-03-23T11:24:24.298Z,15.99
2019-03-23T11:26:52.921Z,16.46
2019-03-23T11:29:21.614Z,16.87
2019-03-23T11:31:50.271Z,17.21
2019-03-23T11:34:18.894Z,17.72
2019-03-23T11:36:47.534Z,16.67
2019-03-23T11:39:16.193Z,16.80
2019-03-23T11:41:44.805Z,16.73
2019-03-23T11:44:13.448Z,16.99
2019-03-23T11:46:42.188Z,16.99
2019-03-23T11:49:12.275Z,16.54
2019-03-23T11:51:40.899Z,16.95
2019-03-23T11:54:09.606Z,17.88
2019-03-23T11:56:38.185Z,17.74
2019-03-23T11:59:06.820Z,17.39
2019-03-23T12:01:35.486Z,17.66
2019-03-23T12:04:04.113Z,18.18
2019-03-23T12:06:32.740Z,18.24
2019-03-23T12:09:01.394Z,18.55
2019-03-23T12:11:30.025Z,18.36
2019-03-23T12:13:58.660Z,18.34
2019-03-23T12:16:27.317Z,18.25
2019-03-23T12:18:55.795Z,18.82
2019-03-23T12:21:25.260Z,18.60
2019-03-23T12:23:53.851Z,18.86
2019-03-23T12:26:22.476Z,18.10
2019-03-23T12:28:51.103Z,18.01
2019-03-23T12:31:19.762Z,18.22
2019-03-23T12:33:48.381Z,18.50
2019-03-23T12:36:17.011Z,18.76
2019-03-23T12:38:45.669Z,18.95
2019-03-23T12:41:22.731Z,18.36
2019-03-23T12:43:44.572Z,18.06
2019-03-23T12:46:13.220Z,18.74
2019-03-23T12:48:41.880Z,18.95
2019-03-23T12:51:10.488Z,18.22
2019-03-23T12:53:39.165Z,18.49
2019-03-23T12:56:07.786Z,18.73
2019-03-23T12:58:36.411Z,18.43
2019-03-23T13:01:05.074Z,18.19
2019-03-23T13:03:33.708Z,18.29
2019-03-23T13:06:02.344Z,17.88
2019-03-23T13:08:30.931Z,17.95
2019-03-23T13:10:59.505Z,18.68
2019-03-23T13:13:28.248Z,19.00
2019-03-23T13:15:56.859Z,18.51
2019-03-23T13:18:27.328Z,18.20
2019-03-23T13:20:55.911Z,18.61
2019-03-23T13:23:25.395Z,19.11
2019-03-23T13:25:54.024Z,19.05
2019-03-23T13:28:22.585Z,18.71
2019-03-23T13:30:51.240Z,19.15
2019-03-23T13:33:19.941Z,19.51
2019-03-23T13:35:48.522Z,19.01
2019-03-23T13:38:17.290Z,18.75
2019-03-23T13:40:45.909Z,18.78
2019-03-23T13:43:15.526Z,19.19
2019-03-23T13:45:44.173Z,19.19
2019-03-23T13:48:12.799Z,19.64
2019-03-23T13:50:41.485Z,19.46
2019-03-23T13:53:10.148Z,19.58
2019-03-23T13:55:38.771Z,19.61
2019-03-23T13:58:14.554Z,19.37
2019-03-23T14:00:43.203Z,19.67
2019-03-23T14:03:11.923Z,19.73
2019-03-23T14:05:40.611Z,19.41
2019-03-23T14:08:09.285Z,18.72
2019-03-23T14:10:37.917Z,18.86
2019-03-23T14:13:06.525Z,18.32
2019-03-23T14:15:35.279Z,18.79
2019-03-23T14:18:03.908Z,19.10
2019-03-23T14:20:32.526Z,17.92
2019-03-23T14:23:02.952Z,17.63
2019-03-23T14:25:31.534Z,17.18
2019-03-23T14:28:00.079Z,17.91
2019-03-23T14:30:28.739Z,18.08
2019-03-23T14:32:57.292Z,18.26
2019-03-23T14:35:25.925Z,18.20
2019-03-23T14:37:54.597Z,18.25
2019-03-23T14:40:23.219Z,18.57
2019-03-23T14:42:51.837Z,18.94
2019-03-23T14:45:20.496Z,18.83
2019-03-23T14:47:48.973Z,18.35
2019-03-23T14:50:17.594Z,17.73
2019-03-23T14:52:46.253Z,18.06
2019-03-23T14:55:14.865Z,18.00
2019-03-23T14:57:43.495Z,18.03
2019-03-23T15:00:13.025Z,17.48
2019-03-23T15:02:41.642Z,18.27
2019-03-23T15:05:10.262Z,18.60
2019-03-23T15:07:38.916Z,18.95
2019-03-23T15:10:09.199Z,18.77
2019-03-23T15:12:37.820Z,17.69
2019-03-23T15:15:07.681Z,17.52
2019-03-23T15:17:36.299Z,17.87
2019-03-23T15:20:06.321Z,18.23
2019-03-23T15:22:34.978Z,17.62
2019-03-23T15:25:04.003Z,17.58
2019-03-23T15:27:32.617Z,17.90
2019-03-23T15:30:01.273Z,17.96
2019-03-23T15:32:29.898Z,17.83
2019-03-23T15:34:58.520Z,18.59
2019-03-23T15:37:27.180Z,18.69
2019-03-23T15:39:55.731Z,18.89
2019-03-23T15:42:25.131Z,17.88
2019-03-23T15:44:53.902Z,17.73
2019-03-23T15:47:22.529Z,17.45
2019-03-23T15:49:51.160Z,17.68
2019-03-23T15:52:19.821Z,17.06
2019-03-23T15:54:48.450Z,17.01
2019-03-23T15:57:17.079Z,17.67
2019-03-23T15:59:45.669Z,17.13
2019-03-23T16:02:14.303Z,17.03
2019-03-23T16:04:42.934Z,17.04
2019-03-23T16:07:11.588Z,17.14
2019-03-23T16:09:42.983Z,17.08
2019-03-23T16:12:13.072Z,17.72
2019-03-23T16:14:41.739Z,16.99
2019-03-23T16:17:10.355Z,17.22
2019-03-23T16:19:38.913Z,16.79
2019-03-23T16:22:07.580Z,17.39
2019-03-23T16:24:36.231Z,17.75
2019-03-23T16:27:04.839Z,17.38
2019-03-23T16:29:33.503Z,17.00
2019-03-23T16:32:02.127Z,17.22
2019-03-23T16:34:30.753Z,17.46
2019-03-23T16:36:59.417Z,17.99
2019-03-23T16:39:28.036Z,17.89
2019-03-23T16:41:56.741Z,17.75
2019-03-23T16:44:25.391Z,17.62
2019-03-23T16:46:54.023Z,17.64
2019-03-23T16:49:22.505Z,17.19
2019-03-23T16:51:51.157Z,17.32
2019-03-23T16:54:19.784Z,17.16
2019-03-23T16:56:48.459Z,16.82
2019-03-23T16:59:17.047Z,17.15
2019-03-23T17:01:45.675Z,17.13
2019-03-23T17:04:14.269Z,17.21
2019-03-23T17:06:46.596Z,16.77
2019-03-23T17:09:13.274Z,17.18
2019-03-23T17:11:41.834Z,17.24
2019-03-23T17:14:10.496Z,16.98
2019-03-23T17:16:39.188Z,16.93
2019-03-23T17:19:07.814Z,16.96
2019-03-23T17:21:36.483Z,16.70
2019-03-23T17:24:05.114Z,16.88
2019-03-23T17:26:33.748Z,16.97
2019-03-23T17:29:02.492Z,17.15
2019-03-23T17:31:31.115Z,16.98
2019-03-23T17:33:59.683Z,16.72
2019-03-23T17:36:28.265Z,16.75
2019-03-23T17:38:56.897Z,16.60
2019-03-23T17:41:25.527Z,16.49
2019-03-23T17:43:54.232Z,16.58
2019-03-23T17:46:22.854Z,16.53
2019-03-23T17:48:51.504Z,16.47
2019-03-23T17:51:20.179Z,16.40
2019-03-23T17:53:58.238Z,16.30
2019-03-23T17:56:19.246Z,16.25
2019-03-23T17:58:47.902Z,16.25
2019-03-23T18:01:19.641Z,16.02
2019-03-23T18:03:47.600Z,16.03
2019-03-23T18:06:16.259Z,15.89
2019-03-23T18:08:44.889Z,15.98
2019-03-23T18:11:13.518Z,15.94
2019-03-23T18:13:42.190Z,15.88
2019-03-23T18:16:10.833Z,15.82
2019-03-23T18:18:39.446Z,15.71
2019-03-23T18:21:08.122Z,15.65
2019-03-23T18:23:36.838Z,15.58
2019-03-23T18:26:06.363Z,15.28
2019-03-23T18:28:35.024Z,15.50
2019-03-23T18:31:03.655Z,15.53
2019-03-23T18:33:33.012Z,15.43
2019-03-23T18:36:01.676Z,15.04
2019-03-23T18:38:30.409Z,15.27
2019-03-23T18:40:59.030Z,15.37
2019-03-23T18:43:28.072Z,15.40
2019-03-23T18:45:56.701Z,15.35
2019-03-23T18:48:25.344Z,15.32
2019-03-23T18:50:54.013Z,15.29
2019-03-23T18:53:24.033Z,15.20
2019-03-23T18:55:52.938Z,15.20
2019-03-23T18:58:21.662Z,15.13
2019-03-23T19:00:50.382Z,14.86
2019-03-23T19:03:19.021Z,14.88
2019-03-23T19:05:47.715Z,14.87
2019-03-23T19:08:16.359Z,14.88
2019-03-23T19:10:44.995Z,14.87
2019-03-23T19:13:13.759Z,14.92
2019-03-23T19:15:42.395Z,14.82
2019-03-23T19:18:11.111Z,14.81
2019-03-23T19:20:39.775Z,14.80
2019-03-23T19:23:08.442Z,14.80
2019-03-23T19:25:37.059Z,14.73
2019-03-23T19:28:05.832Z,14.76
2019-03-23T19:30:34.531Z,14.73
2019-03-23T19:33:03.170Z,14.65
2019-03-23T19:35:31.929Z,14.50
2019-03-23T19:38:00.562Z,14.47
2019-03-23T19:40:29.172Z,14.54
2019-03-23T19:42:59.662Z,14.49
2019-03-23T19:45:28.365Z,14.16
2019-03-23T19:47:57.083Z,14.38
2019-03-23T19:50:25.744Z,14.21
2019-03-23T19:52:55.539Z,14.31
2019-03-23T19:55:24.177Z,14.33
2019-03-23T19:57:54.762Z,14.29
2019-03-23T20:00:23.173Z,14.25
2019-03-23T20:02:51.805Z,14.09
2019-03-23T20:05:23.464Z,14.09
2019-03-23T20:07:52.180Z,14.04
2019-03-23T20:10:20.895Z,14.00
2019-03-23T20:12:49.571Z,14.05
2019-03-23T20:15:18.193Z,14.16
2019-03-23T20:17:46.817Z,14.12
2019-03-23T20:20:16.953Z,14.11
2019-03-23T20:22:45.686Z,14.20
2019-03-23T20:25:15.883Z,13.91
2019-03-23T20:27:44.536Z,14.08
2019-03-23T20:30:14.346Z,13.94
2019-03-23T20:32:42.971Z,14.07
2019-03-23T20:35:11.859Z,13.98
2019-03-23T20:37:40.481Z,13.72
2019-03-23T20:40:10.118Z,14.09
2019-03-23T20:42:38.864Z,13.98
2019-03-23T20:45:08.478Z,14.04
2019-03-23T20:47:39.466Z,14.02
2019-03-23T20:50:09.226Z,14.23
2019-03-23T20:52:37.932Z,14.21
2019-03-23T20:55:08.610Z,13.82
2019-03-23T20:57:37.883Z,13.98
2019-03-23T21:00:08.250Z,13.92
2019-03-23T21:02:36.874Z,13.99
2019-03-23T21:05:06.660Z,13.84
2019-03-23T21:07:35.287Z,13.80
2019-03-23T21:10:04.791Z,13.72
2019-03-23T21:12:33.454Z,13.84
2019-03-23T21:15:02.868Z,13.71
2019-03-23T21:17:31.504Z,13.71
2019-03-23T21:20:00.767Z,13.99
2019-03-23T21:22:29.411Z,13.93
2019-03-23T21:24:58.038Z,13.61
2019-03-23T21:27:26.695Z,13.74
2019-03-23T21:29:55.322Z,13.71
2019-03-23T21:32:23.960Z,12.80
2019-03-23T21:34:52.627Z,13.32
2019-03-23T21:37:21.266Z,13.31
2019-03-23T21:39:49.911Z,13.48
2019-03-23T21:42:18.581Z,13.38
2019-03-23T21:44:47.208Z,13.39
2019-03-23T21:47:15.848Z,13.52
2019-03-23T21:49:44.600Z,13.49
2019-03-23T21:52:13.301Z,13.54
2019-03-23T21:54:41.919Z,13.13
2019-03-23T21:57:10.672Z,13.30
2019-03-23T21:59:39.223Z,13.26
2019-03-23T22:02:07.865Z,13.23
2019-03-23T22:04:36.461Z,13.31
2019-03-23T22:07:05.191Z,13.26
2019-03-23T22:09:33.759Z,13.28
2019-03-23T22:12:02.416Z,13.43
2019-03-23T22:14:41.161Z,13.59
2019-03-23T22:17:01.585Z,13.55
2019-03-23T22:19:30.255Z,13.53
2019-03-23T22:21:58.891Z,13.54
2019-03-23T22:24:27.516Z,13.22
2019-03-23T22:26:56.170Z,13.30
2019-03-23T22:29:24.800Z,13.27
2019-03-23T22:31:53.434Z,13.11
2019-03-23T22:34:22.017Z,11.82
2019-03-23T22:36:50.651Z,12.76
2019-03-23T22:39:19.288Z,12.86
2019-03-23T22:41:47.939Z,12.85
2019-03-23T22:44:16.486Z,12.63
2019-03-23T22:46:45.108Z,12.90
2019-03-23T22:49:13.784Z,11.77
2019-03-23T22:51:42.409Z,10.61
2019-03-23T22:54:11.034Z,11.76
2019-03-23T22:56:39.707Z,12.32
2019-03-23T22:59:08.298Z,12.45
2019-03-23T23:01:36.951Z,12.60
2019-03-23T23:04:05.609Z,12.41
2019-03-23T23:06:34.236Z,12.69
2019-03-23T23:09:02.959Z,12.37
2019-03-23T23:11:31.625Z,12.60
2019-03-23T23:14:00.251Z,12.62
2019-03-23T23:16:28.876Z,12.69
2019-03-23T23:18:57.538Z,12.81
2019-03-23T23:21:26.171Z,12.77
2019-03-23T23:23:54.784Z,12.71
2019-03-23T23:26:23.457Z,12.84
2019-03-23T23:28:52.090Z,12.79
2019-03-23T23:31:20.719Z,12.69
2019-03-23T23:33:49.374Z,12.13
2019-03-23T23:36:18.074Z,12.33
2019-03-23T23:38:46.715Z,12.51
2019-03-23T23:41:15.376Z,12.60
2019-03-23T23:43:44.008Z,12.52
2019-03-23T23:46:12.639Z,12.53
2019-03-23T23:48:50.802Z,12.56
2019-03-23T23:51:11.653Z,12.58
2019-03-23T23:53:40.345Z,12.38
2019-03-23T23:56:09.017Z,12.37
2019-03-23T23:58:37.636Z,12.32
